createdAt,value
2019-05-29T00:00:41.485Z,1.47
2019-05-29T00:01:49.487Z,1.30
2019-05-29T00:02:56.698Z,1.27
2019-05-29T00:04:06.065Z,1.33
2019-05-29T00:05:14.338Z,1.10
2019-05-29T00:06:22.362Z,1.27
2019-05-29T00:07:29.562Z,1.50
2019-05-29T00:08:37.548Z,1.20
2019-05-29T00:09:45.438Z,1.50
2019-05-29T00:10:53.424Z,1.50
2019-05-29T00:12:00.649Z,1.20
2019-05-29T00:13:08.716Z,1.20
2019-05-29T00:14:26.603Z,1.30
2019-05-29T00:15:25.642Z,1.43
2019-05-29T00:16:32.944Z,1.30
2019-05-29T00:17:40.964Z,1.30
2019-05-29T00:18:48.219Z,1.47
2019-05-29T00:19:56.211Z,1.30
2019-05-29T00:21:03.489Z,1.40
2019-05-29T00:22:12.382Z,1.53
2019-05-29T00:23:19.718Z,1.23
2019-05-29T00:24:27.741Z,1.20
2019-05-29T00:25:35.127Z,1.30
2019-05-29T00:26:43.180Z,1.40
2019-05-29T00:27:50.479Z,1.40
2019-05-29T00:28:58.533Z,1.50
2019-05-29T00:30:06.992Z,1.40
2019-05-29T00:31:15.097Z,1.57
2019-05-29T00:32:22.396Z,1.57
2019-05-29T00:33:30.402Z,1.40
2019-05-29T00:34:37.688Z,1.60
2019-05-29T00:35:45.738Z,1.63
2019-05-29T00:36:53.047Z,1.60
2019-05-29T00:38:01.030Z,1.57
2019-05-29T00:39:09.246Z,1.73
2019-05-29T00:40:18.391Z,1.83
2019-05-29T00:41:25.708Z,2.00
2019-05-29T00:42:33.728Z,1.50
2019-05-29T00:43:40.998Z,1.70
2019-05-29T00:44:49.006Z,1.80
2019-05-29T00:45:56.199Z,1.57
2019-05-29T00:47:04.200Z,1.70
2019-05-29T00:48:11.674Z,1.77
2019-05-29T00:49:19.726Z,1.90
2019-05-29T00:50:26.947Z,1.80
2019-05-29T00:51:36.019Z,1.70
2019-05-29T00:52:43.243Z,2.00
2019-05-29T00:53:51.367Z,1.60
2019-05-29T00:55:00.184Z,1.80
2019-05-29T00:56:10.428Z,1.80
2019-05-29T00:57:18.948Z,1.77
2019-05-29T00:58:27.066Z,1.90
2019-05-29T00:59:34.297Z,2.10
2019-05-29T01:00:42.283Z,2.00
2019-05-29T01:01:49.495Z,2.00
2019-05-29T01:02:57.489Z,2.07
2019-05-29T01:04:04.740Z,2.10
2019-05-29T01:05:13.856Z,2.00
2019-05-29T01:06:21.231Z,1.93
2019-05-29T01:07:29.230Z,1.67
2019-05-29T01:08:36.431Z,1.60
2019-05-29T01:09:44.647Z,1.97
2019-05-29T01:10:51.875Z,2.07
2019-05-29T01:11:59.879Z,1.80
2019-05-29T01:13:07.103Z,2.23
2019-05-29T01:14:15.205Z,2.17
2019-05-29T01:15:23.000Z,1.77
2019-05-29T01:16:31.032Z,1.83
2019-05-29T01:17:38.264Z,2.03
2019-05-29T01:18:46.291Z,2.30
2019-05-29T01:19:53.497Z,2.37
2019-05-29T01:21:01.499Z,2.30
2019-05-29T01:22:08.734Z,2.03
2019-05-29T01:23:16.728Z,1.97
2019-05-29T01:24:23.980Z,2.67
2019-05-29T01:25:31.974Z,2.30
2019-05-29T01:26:39.184Z,2.27
2019-05-29T01:27:47.178Z,2.17
2019-05-29T01:28:54.414Z,2.30
2019-05-29T01:30:02.421Z,2.77
2019-05-29T01:31:11.024Z,2.20
2019-05-29T01:32:19.538Z,2.13
2019-05-29T01:33:26.812Z,2.53
2019-05-29T01:34:34.839Z,2.63
2019-05-29T01:35:43.033Z,2.20
2019-05-29T01:36:51.041Z,2.47
2019-05-29T01:37:58.235Z,2.67
2019-05-29T01:39:07.530Z,2.70
2019-05-29T01:40:21.160Z,2.50
2019-05-29T01:41:24.608Z,2.30
2019-05-29T01:42:31.849Z,2.60
2019-05-29T01:43:39.844Z,2.73
2019-05-29T01:44:47.067Z,2.93
2019-05-29T01:45:55.105Z,3.20
2019-05-29T01:47:02.344Z,3.07
2019-05-29T01:48:10.351Z,2.97
2019-05-29T01:49:17.928Z,3.20
2019-05-29T01:50:25.987Z,2.97
2019-05-29T01:51:33.242Z,3.00
2019-05-29T01:52:41.258Z,2.80
2019-05-29T01:53:48.472Z,2.77
2019-05-29T01:54:56.481Z,3.20
2019-05-29T01:56:03.704Z,3.30
2019-05-29T01:57:11.725Z,2.83
2019-05-29T01:58:20.446Z,3.00
2019-05-29T01:59:28.537Z,3.30
2019-05-29T02:00:35.743Z,2.87
2019-05-29T02:01:43.738Z,2.90
2019-05-29T02:02:50.962Z,3.00
2019-05-29T02:03:58.980Z,3.40
2019-05-29T02:05:06.974Z,2.93
2019-05-29T02:06:15.841Z,2.73
2019-05-29T02:07:24.035Z,3.60
2019-05-29T02:08:32.158Z,3.57
2019-05-29T02:09:39.489Z,3.60
2019-05-29T02:10:47.496Z,3.00
2019-05-29T02:11:54.702Z,3.23
2019-05-29T02:13:03.747Z,3.57
2019-05-29T02:14:10.990Z,3.60
2019-05-29T02:15:25.942Z,2.90
2019-05-29T02:16:28.303Z,3.40
2019-05-29T02:17:36.294Z,3.60
2019-05-29T02:18:43.505Z,3.40
2019-05-29T02:19:51.542Z,3.67
2019-05-29T02:20:58.746Z,3.30
2019-05-29T02:22:06.757Z,3.60
2019-05-29T02:23:13.956Z,3.93
2019-05-29T02:24:23.162Z,4.03
2019-05-29T02:25:30.517Z,3.93
2019-05-29T02:26:38.495Z,4.13
2019-05-29T02:27:45.710Z,4.13
2019-05-29T02:28:53.696Z,4.27
2019-05-29T02:30:00.938Z,3.83
2019-05-29T02:31:10.101Z,4.23
2019-05-29T02:32:17.779Z,4.50
2019-05-29T02:33:28.357Z,4.30
2019-05-29T02:34:35.721Z,4.70
2019-05-29T02:35:43.837Z,4.03
2019-05-29T02:36:51.057Z,4.90
2019-05-29T02:37:59.152Z,5.03
2019-05-29T02:39:08.274Z,4.40
2019-05-29T02:40:16.276Z,4.43
2019-05-29T02:41:25.676Z,4.77
2019-05-29T02:42:33.190Z,4.60
2019-05-29T02:43:41.494Z,4.00
2019-05-29T02:44:49.528Z,5.20
2019-05-29T02:45:56.741Z,4.67
2019-05-29T02:47:04.762Z,4.40
2019-05-29T02:48:11.975Z,4.43
2019-05-29T02:49:21.435Z,4.47
2019-05-29T02:50:30.714Z,4.77
2019-05-29T02:51:38.664Z,4.07
2019-05-29T02:52:45.915Z,4.50
2019-05-29T02:53:53.938Z,5.07
2019-05-29T02:55:01.158Z,4.90
2019-05-29T02:56:09.178Z,4.33
2019-05-29T02:57:16.423Z,4.37
2019-05-29T02:58:25.846Z,4.70
2019-05-29T02:59:33.333Z,4.43
2019-05-29T03:00:56.612Z,4.60
2019-05-29T03:02:03.792Z,4.53
2019-05-29T03:03:11.829Z,4.60
2019-05-29T03:04:19.055Z,4.93
2019-05-29T03:05:28.086Z,5.27
2019-05-29T03:06:35.439Z,4.97
2019-05-29T03:07:43.428Z,5.23
2019-05-29T03:08:51.258Z,4.83
2019-05-29T03:09:59.726Z,4.83
2019-05-29T03:11:07.087Z,4.57
2019-05-29T03:12:15.079Z,5.07
2019-05-29T03:13:23.170Z,4.77
2019-05-29T03:14:32.309Z,5.10
2019-05-29T03:15:41.380Z,5.17
2019-05-29T03:16:49.403Z,4.67
2019-05-29T03:17:56.644Z,4.63
2019-05-29T03:19:04.656Z,4.90
2019-05-29T03:20:12.047Z,5.17
2019-05-29T03:21:20.038Z,4.70
2019-05-29T03:22:28.715Z,5.07
2019-05-29T03:23:36.966Z,5.30
2019-05-29T03:24:44.190Z,5.07
2019-05-29T03:25:52.180Z,5.50
2019-05-29T03:26:59.393Z,5.27
2019-05-29T03:28:08.159Z,5.40
2019-05-29T03:29:15.420Z,5.57
2019-05-29T03:30:23.432Z,5.63
2019-05-29T03:31:37.741Z,4.90
2019-05-29T03:32:47.320Z,5.20
2019-05-29T03:33:50.762Z,5.20
2019-05-29T03:34:58.964Z,5.40
2019-05-29T03:36:06.213Z,5.20
2019-05-29T03:37:14.282Z,5.40
2019-05-29T03:38:21.526Z,5.50
2019-05-29T03:39:30.268Z,4.70
2019-05-29T03:40:38.683Z,5.37
2019-05-29T03:41:46.831Z,4.87
2019-05-29T03:42:54.068Z,5.10
2019-05-29T03:44:02.089Z,5.70
2019-05-29T03:45:09.813Z,5.60
2019-05-29T03:46:30.024Z,5.10
2019-05-29T03:47:27.088Z,5.20
2019-05-29T03:48:38.357Z,5.47
2019-05-29T03:49:45.330Z,5.23
2019-05-29T03:50:53.335Z,5.53
2019-05-29T03:52:00.545Z,5.13
2019-05-29T03:53:08.579Z,5.17
2019-05-29T03:54:15.805Z,5.80
2019-05-29T03:55:23.796Z,5.60
2019-05-29T03:56:32.541Z,5.57
2019-05-29T03:57:40.696Z,5.30
2019-05-29T03:58:47.921Z,5.37
2019-05-29T03:59:55.940Z,5.07
2019-05-29T04:01:03.151Z,5.30
2019-05-29T04:02:11.315Z,5.07
2019-05-29T04:03:18.517Z,4.93
2019-05-29T04:04:26.980Z,5.47
2019-05-29T04:05:35.496Z,4.90
2019-05-29T04:06:47.256Z,4.70
2019-05-29T04:07:52.996Z,5.20
2019-05-29T04:09:00.993Z,5.23
2019-05-29T04:10:11.700Z,5.23
2019-05-29T04:11:19.703Z,5.40
2019-05-29T04:12:27.138Z,5.20
2019-05-29T04:13:36.173Z,5.30
2019-05-29T04:14:44.668Z,5.00
2019-05-29T04:15:54.264Z,5.10
2019-05-29T04:17:02.388Z,5.00
2019-05-29T04:18:10.709Z,5.40
2019-05-29T04:19:18.105Z,5.37
2019-05-29T04:20:27.522Z,5.53
2019-05-29T04:21:38.431Z,5.47
2019-05-29T04:22:47.772Z,5.37
2019-05-29T04:23:58.015Z,5.17
2019-05-29T04:25:07.747Z,5.03
2019-05-29T04:26:18.204Z,5.00
2019-05-29T04:27:31.956Z,5.47
2019-05-29T04:28:39.625Z,6.00
2019-05-29T04:29:49.626Z,5.17
2019-05-29T04:30:56.854Z,5.43
2019-05-29T04:32:04.863Z,4.70
2019-05-29T04:33:12.064Z,5.43
2019-05-29T04:34:20.080Z,5.63
2019-05-29T04:35:28.289Z,5.67
2019-05-29T04:36:36.953Z,5.20
2019-05-29T04:37:45.787Z,4.87
2019-05-29T04:38:53.757Z,5.90
2019-05-29T04:40:00.964Z,5.20
2019-05-29T04:41:08.982Z,5.37
2019-05-29T04:42:16.197Z,5.27
2019-05-29T04:43:24.189Z,4.80
2019-05-29T04:44:33.096Z,6.07
2019-05-29T04:45:41.073Z,4.80
2019-05-29T04:46:48.306Z,4.73
2019-05-29T04:47:56.339Z,5.10
2019-05-29T04:49:03.546Z,5.10
2019-05-29T04:50:12.150Z,5.27
2019-05-29T04:51:19.381Z,4.90
2019-05-29T04:52:28.968Z,5.00
2019-05-29T04:53:37.783Z,5.20
2019-05-29T04:54:47.475Z,5.00
2019-05-29T04:55:54.775Z,5.40
2019-05-29T04:57:02.769Z,5.90
2019-05-29T04:58:09.995Z,5.50
2019-05-29T04:59:18.014Z,5.27
2019-05-29T05:00:25.274Z,4.47
2019-05-29T05:01:33.264Z,5.03
2019-05-29T05:02:40.475Z,5.03
2019-05-29T05:03:48.467Z,4.70
2019-05-29T05:04:56.010Z,5.77
2019-05-29T05:06:04.046Z,4.97
2019-05-29T05:07:11.252Z,4.53
2019-05-29T05:08:19.243Z,5.17
2019-05-29T05:09:26.471Z,5.20
2019-05-29T05:10:40.960Z,4.87
2019-05-29T05:11:48.527Z,5.33
2019-05-29T05:12:56.597Z,4.67
2019-05-29T05:14:03.894Z,5.00
2019-05-29T05:15:12.485Z,6.03
2019-05-29T05:16:19.727Z,5.20
2019-05-29T05:17:27.748Z,5.23
2019-05-29T05:18:35.845Z,4.70
2019-05-29T05:19:43.959Z,5.80
2019-05-29T05:20:51.313Z,5.50
2019-05-29T05:21:59.383Z,4.83
2019-05-29T05:23:07.554Z,5.13
2019-05-29T05:24:15.577Z,5.47
2019-05-29T05:25:22.818Z,4.90
2019-05-29T05:26:32.055Z,5.10
2019-05-29T05:27:40.666Z,4.93
2019-05-29T05:28:48.850Z,5.83
2019-05-29T05:29:56.071Z,5.27
2019-05-29T05:31:04.062Z,4.80
2019-05-29T05:32:11.288Z,5.20
2019-05-29T05:33:19.296Z,4.83
2019-05-29T05:34:26.529Z,4.87
2019-05-29T05:35:34.679Z,5.53
2019-05-29T05:36:41.923Z,4.50
2019-05-29T05:37:49.959Z,4.47
2019-05-29T05:38:57.196Z,4.47
2019-05-29T05:40:05.483Z,4.63
2019-05-29T05:41:12.682Z,4.07
2019-05-29T05:42:20.706Z,4.23
2019-05-29T05:43:27.965Z,4.60
2019-05-29T05:44:37.031Z,4.90
2019-05-29T05:45:44.381Z,5.17
2019-05-29T05:46:52.397Z,6.07
2019-05-29T05:48:00.707Z,5.47
2019-05-29T05:49:09.628Z,4.73
2019-05-29T05:50:17.436Z,4.90
2019-05-29T05:51:25.427Z,5.73
2019-05-29T05:52:33.762Z,4.53
2019-05-29T05:53:41.933Z,4.57
2019-05-29T05:54:50.288Z,5.23
2019-05-29T05:55:58.296Z,4.70
2019-05-29T05:57:05.537Z,4.97
2019-05-29T05:58:13.602Z,4.80
2019-05-29T05:59:20.905Z,4.43
2019-05-29T06:00:35.791Z,4.07
2019-05-29T06:01:43.269Z,4.27
2019-05-29T06:02:52.268Z,4.37
2019-05-29T06:03:59.582Z,4.37
2019-05-29T06:05:08.727Z,5.07
2019-05-29T06:06:16.007Z,4.83
2019-05-29T06:07:24.131Z,4.73
2019-05-29T06:08:32.011Z,4.17
2019-05-29T06:09:40.458Z,4.20
2019-05-29T06:10:50.610Z,4.63
2019-05-29T06:11:57.537Z,4.67
2019-05-29T06:13:04.851Z,4.87
2019-05-29T06:14:12.875Z,4.20
2019-05-29T06:15:20.103Z,4.93
2019-05-29T06:16:28.110Z,4.50
2019-05-29T06:17:36.543Z,4.73
2019-05-29T06:18:44.750Z,4.67
2019-05-29T06:19:51.993Z,4.27
2019-05-29T06:21:00.016Z,4.03
2019-05-29T06:22:07.226Z,4.27
2019-05-29T06:23:15.252Z,4.70
2019-05-29T06:24:22.476Z,4.77
2019-05-29T06:25:33.608Z,4.30
2019-05-29T06:26:41.062Z,4.83
2019-05-29T06:27:49.174Z,4.70
2019-05-29T06:28:56.394Z,4.07
2019-05-29T06:30:04.417Z,4.53
2019-05-29T06:31:11.657Z,4.67
2019-05-29T06:32:19.649Z,5.40
2019-05-29T06:33:26.864Z,4.43
2019-05-29T06:34:35.686Z,5.00
2019-05-29T06:35:43.789Z,4.33
2019-05-29T06:36:52.069Z,5.40
2019-05-29T06:37:59.313Z,4.40
2019-05-29T06:39:09.253Z,4.73
2019-05-29T06:40:38.339Z,5.10
2019-05-29T06:41:47.394Z,4.23
2019-05-29T06:42:54.606Z,4.40
2019-05-29T06:44:02.629Z,4.27
2019-05-29T06:45:10.283Z,4.73
2019-05-29T06:46:18.409Z,4.37
2019-05-29T06:47:25.645Z,4.80
2019-05-29T06:48:50.266Z,4.10
2019-05-29T06:49:42.706Z,4.43
2019-05-29T06:50:50.949Z,4.43
2019-05-29T06:51:58.665Z,5.00
2019-05-29T06:53:06.772Z,4.40
2019-05-29T06:54:14.005Z,4.03
2019-05-29T06:55:22.019Z,4.40
2019-05-29T06:56:29.233Z,4.33
2019-05-29T06:57:38.099Z,3.97
2019-05-29T06:58:45.438Z,4.67
2019-05-29T06:59:53.454Z,4.33
2019-05-29T07:01:00.676Z,4.30
2019-05-29T07:02:09.763Z,4.40
2019-05-29T07:03:17.019Z,4.63
2019-05-29T07:04:25.026Z,4.13
2019-05-29T07:05:32.236Z,4.30
2019-05-29T07:06:40.737Z,4.43
2019-05-29T07:07:48.052Z,4.47
2019-05-29T07:08:56.417Z,3.93
2019-05-29T07:10:03.898Z,4.20
2019-05-29T07:11:11.890Z,3.70
2019-05-29T07:12:19.130Z,4.40
2019-05-29T07:13:27.130Z,4.40
2019-05-29T07:14:34.346Z,4.00
2019-05-29T07:15:42.907Z,3.93
2019-05-29T07:16:55.904Z,3.97
2019-05-29T07:18:00.134Z,4.07
2019-05-29T07:20:17.336Z,3.73
2019-05-29T07:21:24.558Z,3.97
2019-05-29T07:22:32.640Z,3.73
2019-05-29T07:23:41.276Z,3.57
2019-05-29T07:24:49.341Z,3.90
2019-05-29T07:25:56.615Z,4.17
2019-05-29T07:27:04.614Z,4.80
2019-05-29T07:28:12.056Z,3.80
2019-05-29T07:29:20.124Z,3.83
2019-05-29T07:30:27.551Z,3.87
2019-05-29T07:31:36.811Z,3.83
2019-05-29T07:32:50.101Z,4.00
2019-05-29T07:33:54.008Z,4.50
2019-05-29T07:35:03.519Z,3.57
2019-05-29T07:36:12.014Z,4.10
2019-05-29T07:37:19.225Z,3.53
2019-05-29T07:38:27.233Z,3.53
2019-05-29T07:39:34.442Z,4.03
2019-05-29T07:40:44.633Z,3.30
2019-05-29T07:41:51.372Z,3.70
2019-05-29T07:42:59.361Z,3.90
2019-05-29T07:44:06.572Z,3.50
2019-05-29T07:45:16.156Z,3.63
2019-05-29T07:46:23.410Z,3.67
2019-05-29T07:47:31.430Z,3.50
2019-05-29T07:48:38.641Z,3.30
2019-05-29T07:49:48.938Z,2.90
2019-05-29T07:51:06.562Z,3.37
2019-05-29T07:52:05.649Z,3.50
2019-05-29T07:53:12.855Z,2.73
2019-05-29T07:54:20.847Z,2.73
2019-05-29T07:55:28.098Z,2.80
2019-05-29T07:56:36.067Z,2.80
2019-05-29T07:57:44.802Z,2.90
2019-05-29T07:59:02.748Z,2.77
2019-05-29T08:00:02.047Z,2.73
2019-05-29T08:01:13.675Z,2.60
2019-05-29T08:02:19.470Z,2.67
2019-05-29T08:03:28.262Z,2.67
2019-05-29T08:04:35.495Z,2.83
2019-05-29T08:05:47.722Z,2.63
2019-05-29T08:06:54.652Z,2.53
2019-05-29T08:08:02.484Z,2.70
2019-05-29T08:09:10.026Z,2.50
2019-05-29T08:10:18.698Z,2.57
2019-05-29T08:11:25.923Z,2.83
2019-05-29T08:12:34.064Z,2.70
2019-05-29T08:13:41.575Z,2.57
2019-05-29T08:14:50.210Z,2.47
2019-05-29T08:16:02.948Z,2.37
2019-05-29T08:17:08.564Z,2.63
2019-05-29T08:18:15.889Z,2.27
2019-05-29T08:19:23.822Z,2.50
2019-05-29T08:20:31.061Z,2.10
2019-05-29T08:21:40.814Z,2.53
2019-05-29T08:22:48.535Z,1.90
2019-05-29T08:23:56.761Z,2.80
2019-05-29T08:25:04.020Z,2.37
2019-05-29T08:26:12.082Z,2.30
2019-05-29T08:27:19.307Z,2.40
2019-05-29T08:28:27.318Z,2.67
2019-05-29T08:29:34.547Z,2.80
2019-05-29T08:30:48.311Z,2.77
2019-05-29T08:31:51.473Z,3.17
2019-05-29T08:32:59.482Z,2.77
2019-05-29T08:34:06.700Z,2.40
2019-05-29T08:35:14.884Z,2.73
2019-05-29T08:36:22.115Z,2.47
2019-05-29T08:37:30.117Z,2.20
2019-05-29T08:38:37.344Z,2.13
2019-05-29T08:39:45.456Z,2.23
2019-05-29T08:40:52.714Z,2.07
2019-05-29T08:42:22.071Z,1.90
2019-05-29T08:43:10.852Z,2.00
2019-05-29T08:44:18.874Z,2.33
2019-05-29T08:45:26.099Z,1.93
2019-05-29T08:46:34.107Z,2.23
2019-05-29T08:47:41.530Z,2.30
2019-05-29T08:48:51.821Z,2.10
2019-05-29T08:50:16.833Z,2.30
2019-05-29T08:51:09.193Z,2.10
2019-05-29T08:52:16.415Z,1.90
2019-05-29T08:53:24.437Z,2.10
2019-05-29T08:54:31.677Z,2.10
2019-05-29T08:55:39.685Z,2.00
2019-05-29T08:56:48.349Z,2.07
2019-05-29T08:57:56.492Z,1.87
2019-05-29T08:59:03.733Z,1.77
2019-05-29T09:00:13.572Z,1.90
2019-05-29T09:01:20.787Z,2.17
2019-05-29T09:02:28.771Z,2.00
2019-05-29T09:03:36.047Z,2.07
2019-05-29T09:04:44.696Z,1.97
2019-05-29T09:06:07.907Z,2.30
2019-05-29T09:07:01.673Z,1.73
2019-05-29T09:08:08.877Z,1.80
2019-05-29T09:09:16.883Z,1.70
2019-05-29T09:10:24.239Z,1.83
2019-05-29T09:11:32.249Z,1.60
2019-05-29T09:12:39.474Z,1.70
2019-05-29T09:13:48.575Z,1.60
2019-05-29T09:14:55.801Z,1.80
2019-05-29T09:16:03.810Z,1.90
2019-05-29T09:17:11.973Z,1.50
2019-05-29T09:18:21.521Z,1.60
2019-05-29T09:19:29.066Z,1.87
2019-05-29T09:21:00.808Z,1.67
2019-05-29T09:21:45.968Z,1.60
2019-05-29T09:22:53.962Z,1.50
2019-05-29T09:24:01.185Z,1.47
2019-05-29T09:25:10.619Z,1.70
2019-05-29T09:26:22.399Z,1.57
2019-05-29T09:27:27.679Z,1.87
2019-05-29T09:28:35.009Z,1.80
2019-05-29T09:29:43.035Z,1.90
2019-05-29T09:30:50.422Z,1.87
2019-05-29T09:31:58.431Z,1.70
2019-05-29T09:33:05.655Z,1.43
2019-05-29T09:34:15.118Z,1.30
2019-05-29T09:35:24.920Z,1.37
2019-05-29T09:36:33.080Z,1.60
2019-05-29T09:37:40.308Z,1.80
2019-05-29T09:38:48.456Z,1.30
2019-05-29T09:39:55.715Z,1.60
2019-05-29T09:41:03.720Z,1.43
2019-05-29T09:42:10.982Z,1.40
2019-05-29T09:43:20.030Z,1.20
2019-05-29T09:44:37.980Z,1.70
2019-05-29T09:45:37.414Z,1.60
2019-05-29T09:46:44.682Z,1.47
2019-05-29T09:47:52.820Z,1.40
2019-05-29T09:49:01.611Z,1.27
2019-05-29T09:50:11.911Z,1.30
2019-05-29T09:51:21.430Z,1.33
2019-05-29T09:52:30.865Z,1.37
2019-05-29T09:53:37.745Z,1.33
2019-05-29T09:54:45.887Z,1.47
2019-05-29T09:55:54.176Z,1.50
2019-05-29T09:57:02.935Z,1.80
2019-05-29T09:58:10.132Z,1.40
2019-05-29T09:59:18.108Z,1.43
2019-05-29T10:00:25.548Z,1.30
2019-05-29T10:01:33.624Z,1.30
2019-05-29T10:02:40.929Z,1.27
2019-05-29T10:03:48.935Z,1.37
2019-05-29T10:04:57.492Z,1.60
2019-05-29T10:06:09.401Z,1.30
2019-05-29T10:07:15.081Z,1.20
2019-05-29T10:08:23.088Z,1.23
2019-05-29T10:09:30.316Z,1.50
2019-05-29T10:10:38.336Z,1.20
2019-05-29T10:11:45.531Z,1.60
2019-05-29T10:12:54.768Z,1.27
2019-05-29T10:14:02.864Z,1.40
2019-05-29T10:15:14.280Z,1.57
2019-05-29T10:16:21.546Z,1.20
2019-05-29T10:17:30.635Z,1.40
2019-05-29T10:18:37.873Z,1.50
2019-05-29T10:19:45.854Z,1.70
2019-05-29T10:20:53.080Z,1.40
2019-05-29T10:22:02.571Z,1.40
2019-05-29T10:23:10.022Z,1.40
2019-05-29T10:24:17.994Z,1.43
2019-05-29T10:25:25.655Z,1.60
2019-05-29T10:26:33.661Z,1.80
2019-05-29T10:27:40.889Z,1.50
2019-05-29T10:29:01.652Z,1.30
2019-05-29T10:29:57.770Z,1.30
2019-05-29T10:31:06.206Z,1.70
2019-05-29T10:32:14.562Z,1.63
2019-05-29T10:33:22.582Z,1.60
2019-05-29T10:34:29.779Z,1.53
2019-05-29T10:35:37.800Z,1.70
2019-05-29T10:36:48.432Z,1.40
2019-05-29T10:37:54.773Z,1.47
2019-05-29T10:39:02.046Z,1.37
2019-05-29T10:40:11.822Z,1.57
2019-05-29T10:41:19.148Z,1.70
2019-05-29T10:42:27.129Z,1.50
2019-05-29T10:43:35.076Z,1.70
2019-05-29T10:44:43.320Z,1.50
2019-05-29T10:45:52.077Z,1.67
2019-05-29T10:47:00.219Z,1.40
2019-05-29T10:48:07.549Z,1.50
2019-05-29T10:49:15.572Z,1.60
2019-05-29T10:50:22.915Z,1.70
2019-05-29T10:51:30.923Z,1.50
2019-05-29T10:52:38.165Z,1.70
2019-05-29T10:53:47.176Z,1.70
2019-05-29T10:54:55.125Z,1.50
2019-05-29T10:56:03.128Z,1.80
2019-05-29T10:57:10.374Z,1.50
2019-05-29T10:58:18.347Z,1.73
2019-05-29T10:59:26.635Z,1.43
2019-05-29T11:00:38.636Z,1.37
2019-05-29T11:01:45.131Z,1.60
2019-05-29T11:02:55.381Z,1.70
2019-05-29T11:04:02.278Z,1.70
2019-05-29T11:05:10.988Z,1.80
2019-05-29T11:06:19.177Z,1.63
2019-05-29T11:07:27.194Z,1.30
2019-05-29T11:08:34.409Z,1.63
2019-05-29T11:09:44.927Z,1.63
2019-05-29T11:10:52.096Z,1.70
2019-05-29T11:12:00.259Z,1.93
2019-05-29T11:13:07.526Z,1.80
2019-05-29T11:14:15.577Z,1.60
2019-05-29T11:15:22.972Z,1.83
2019-05-29T11:16:31.155Z,1.57
2019-05-29T11:17:38.379Z,1.97
2019-05-29T11:18:47.500Z,1.97
2019-05-29T11:19:55.638Z,1.70
2019-05-29T11:21:03.714Z,1.73
2019-05-29T11:22:25.657Z,1.90
2019-05-29T11:23:20.630Z,1.90
2019-05-29T11:24:27.872Z,1.97
2019-05-29T11:25:35.847Z,2.20
2019-05-29T11:26:43.058Z,2.00
2019-05-29T11:27:53.012Z,1.67
2019-05-29T11:29:00.008Z,1.83
2019-05-29T11:30:10.022Z,1.70
2019-05-29T11:31:17.264Z,1.77
2019-05-29T11:32:25.296Z,1.87
2019-05-29T11:33:32.521Z,1.83
2019-05-29T11:34:40.556Z,1.77
2019-05-29T11:35:58.290Z,1.63
2019-05-29T11:36:58.347Z,1.90
2019-05-29T11:38:06.737Z,1.80
2019-05-29T11:39:15.152Z,1.67
2019-05-29T11:40:22.464Z,2.13
2019-05-29T11:41:30.529Z,1.30
2019-05-29T11:42:37.772Z,1.50
2019-05-29T11:43:45.779Z,1.53
2019-05-29T11:44:53.455Z,1.37
2019-05-29T11:46:02.100Z,1.80
2019-05-29T11:47:09.871Z,1.60
2019-05-29T11:48:17.898Z,1.73
2019-05-29T11:49:25.194Z,2.00
2019-05-29T11:50:33.212Z,1.60
2019-05-29T11:51:44.084Z,1.67
2019-05-29T11:52:50.367Z,1.50
2019-05-29T11:53:57.711Z,1.50
2019-05-29T11:55:08.170Z,1.70
2019-05-29T11:56:15.313Z,1.50
2019-05-29T11:57:23.319Z,1.67
2019-05-29T11:58:31.693Z,1.27
2019-05-29T11:59:39.888Z,1.80
2019-05-29T12:00:47.086Z,1.67
2019-05-29T12:01:56.873Z,1.40
2019-05-29T12:03:04.236Z,1.77
2019-05-29T12:04:25.413Z,2.10
2019-05-29T12:05:22.346Z,2.43
2019-05-29T12:06:30.330Z,1.80
2019-05-29T12:07:37.552Z,2.20
2019-05-29T12:08:45.541Z,2.30
2019-05-29T12:09:53.303Z,2.20
2019-05-29T12:11:01.592Z,1.90
2019-05-29T12:12:08.953Z,2.20
2019-05-29T12:13:16.952Z,1.90
2019-05-29T12:14:24.361Z,2.23
2019-05-29T12:15:32.336Z,2.10
2019-05-29T12:16:39.544Z,2.23
2019-05-29T12:17:47.648Z,2.40
2019-05-29T12:18:55.657Z,2.30
2019-05-29T12:20:10.402Z,2.10
2019-05-29T12:21:12.679Z,2.13
2019-05-29T12:22:20.692Z,2.03
2019-05-29T12:23:27.913Z,1.67
2019-05-29T12:24:35.920Z,1.83
2019-05-29T12:25:43.145Z,2.00
2019-05-29T12:26:52.311Z,1.83
2019-05-29T12:28:01.203Z,1.80
2019-05-29T12:29:11.896Z,1.97
2019-05-29T12:30:20.209Z,1.60
2019-05-29T12:31:28.219Z,1.93
2019-05-29T12:32:35.532Z,1.93
2019-05-29T12:33:43.508Z,2.00
2019-05-29T12:34:53.635Z,2.17
2019-05-29T12:36:01.255Z,2.07
2019-05-29T12:37:08.645Z,2.07
2019-05-29T12:38:16.612Z,1.90
2019-05-29T12:39:23.826Z,1.60
2019-05-29T12:40:31.834Z,1.90
2019-05-29T12:41:40.031Z,2.37
2019-05-29T12:42:48.055Z,1.90
2019-05-29T12:43:55.334Z,2.10
2019-05-29T12:45:04.252Z,2.23
2019-05-29T12:46:11.611Z,2.10
2019-05-29T12:47:19.627Z,1.80
2019-05-29T12:48:26.838Z,2.10
2019-05-29T12:49:34.921Z,1.90
2019-05-29T12:50:42.219Z,2.40
2019-05-29T12:51:51.278Z,2.50
2019-05-29T12:52:59.703Z,2.17
2019-05-29T12:54:07.905Z,2.53
2019-05-29T12:55:16.063Z,2.30
2019-05-29T12:56:24.050Z,2.50
2019-05-29T12:57:31.274Z,1.97
2019-05-29T12:58:39.266Z,2.13
2019-05-29T12:59:46.493Z,2.30
2019-05-29T13:00:54.969Z,2.30
2019-05-29T13:02:04.745Z,2.10
2019-05-29T13:03:12.888Z,2.27
2019-05-29T13:04:20.109Z,1.97
2019-05-29T13:05:28.251Z,2.23
2019-05-29T13:06:35.446Z,1.93
2019-05-29T13:07:43.437Z,1.90
2019-05-29T13:08:51.713Z,2.10
2019-05-29T13:10:00.483Z,1.77
2019-05-29T13:11:07.829Z,2.10
2019-05-29T13:12:15.866Z,2.87
2019-05-29T13:13:23.110Z,2.17
2019-05-29T13:14:31.135Z,2.10
2019-05-29T13:15:38.344Z,2.33
2019-05-29T13:16:46.346Z,2.77
2019-05-29T13:17:57.189Z,2.30
2019-05-29T13:19:03.597Z,2.37
2019-05-29T13:20:21.129Z,2.60
2019-05-29T13:21:22.119Z,2.43
2019-05-29T13:22:29.449Z,2.93
2019-05-29T13:23:45.014Z,2.77
2019-05-29T13:24:46.370Z,2.40
2019-05-29T13:25:55.342Z,2.33
2019-05-29T13:27:03.809Z,2.50
2019-05-29T13:28:11.979Z,2.13
2019-05-29T13:29:19.199Z,2.03
2019-05-29T13:30:27.324Z,1.80
2019-05-29T13:31:34.543Z,2.03
2019-05-29T13:32:43.025Z,2.30
2019-05-29T13:33:50.579Z,2.43
2019-05-29T13:35:00.409Z,2.33
2019-05-29T13:36:07.542Z,2.53
2019-05-29T13:37:15.531Z,2.63
2019-05-29T13:38:22.761Z,2.13
2019-05-29T13:39:30.803Z,2.63
2019-05-29T13:40:38.006Z,2.20
2019-05-29T13:41:45.993Z,2.50
2019-05-29T13:42:53.206Z,2.70
2019-05-29T13:44:02.576Z,2.27
2019-05-29T13:45:17.656Z,1.97
2019-05-29T13:46:21.710Z,2.40
2019-05-29T13:47:28.908Z,2.23
2019-05-29T13:48:36.901Z,2.40
2019-05-29T13:49:44.153Z,2.57
2019-05-29T13:50:52.162Z,2.10
2019-05-29T13:51:59.369Z,2.10
2019-05-29T13:53:07.643Z,2.23
2019-05-29T13:54:17.907Z,2.17
2019-05-29T13:55:24.966Z,2.53
2019-05-29T13:56:32.192Z,2.37
2019-05-29T13:57:40.404Z,2.33
2019-05-29T13:58:48.880Z,2.23
2019-05-29T13:59:57.959Z,2.30
2019-05-29T14:01:06.404Z,2.10
2019-05-29T14:02:14.550Z,1.80
2019-05-29T14:03:21.760Z,2.80
2019-05-29T14:04:29.782Z,2.10
2019-05-29T14:05:37.012Z,2.40
2019-05-29T14:06:44.996Z,2.80
2019-05-29T14:07:52.283Z,2.97
2019-05-29T14:09:00.810Z,2.73
2019-05-29T14:10:10.454Z,2.43
2019-05-29T14:11:18.432Z,2.03
2019-05-29T14:12:25.658Z,2.60
2019-05-29T14:13:33.651Z,2.57
2019-05-29T14:14:40.872Z,2.20
2019-05-29T14:15:48.913Z,2.20
2019-05-29T14:16:56.206Z,1.70
2019-05-29T14:18:06.863Z,1.90
2019-05-29T14:19:14.433Z,2.17
2019-05-29T14:20:23.807Z,1.97
2019-05-29T14:21:31.391Z,2.00
2019-05-29T14:22:39.420Z,2.43
2019-05-29T14:23:46.650Z,2.00
2019-05-29T14:24:54.643Z,2.53
2019-05-29T14:26:02.327Z,2.00
2019-05-29T14:27:12.537Z,2.10
2019-05-29T14:28:19.407Z,2.20
2019-05-29T14:29:27.414Z,2.20
2019-05-29T14:30:34.651Z,2.53
2019-05-29T14:31:42.692Z,1.80
2019-05-29T14:32:49.911Z,1.93
2019-05-29T14:33:57.897Z,2.10
2019-05-29T14:35:07.785Z,2.10
2019-05-29T14:36:15.845Z,1.93
2019-05-29T14:37:23.114Z,2.10
2019-05-29T14:38:31.138Z,2.40
2019-05-29T14:39:38.348Z,2.13
2019-05-29T14:40:46.338Z,2.50
2019-05-29T14:41:53.594Z,2.23
2019-05-29T14:43:01.752Z,2.30
2019-05-29T14:44:10.207Z,2.57
2019-05-29T14:45:18.515Z,2.87
2019-05-29T14:46:25.739Z,2.50
2019-05-29T14:47:33.747Z,2.30
2019-05-29T14:48:41.024Z,2.53
2019-05-29T14:49:49.051Z,2.30
2019-05-29T14:50:56.270Z,2.50
2019-05-29T14:52:04.541Z,2.20
2019-05-29T14:53:13.327Z,2.03
2019-05-29T14:54:21.715Z,3.10
2019-05-29T14:55:28.966Z,2.73
2019-05-29T14:56:36.997Z,2.47
2019-05-29T14:57:44.259Z,2.50
2019-05-29T14:58:52.278Z,2.53
2019-05-29T14:59:59.525Z,2.40
2019-05-29T15:01:07.540Z,2.30
2019-05-29T15:02:21.664Z,2.40
2019-05-29T15:03:24.504Z,2.20
2019-05-29T15:04:31.771Z,2.37
2019-05-29T15:05:39.790Z,2.30
2019-05-29T15:06:47.005Z,2.33
2019-05-29T15:07:55.034Z,2.67